sensor_id;sensor_type;location;lat;lon;timestamp;temperature;humidity
53152;DHT22;39234;53.158;6.322;2023-07-29T00:00:43;17.50;99.90
53152;DHT22;39234;53.158;6.322;2023-07-29T00:03:09;17.40;99.90
53152;DHT22;39234;53.158;6.322;2023-07-29T00:05:36;17.70;99.90
53152;DHT22;39234;53.158;6.322;2023-07-29T00:08:02;17.60;99.90
53152;DHT22;39234;53.158;6.322;2023-07-29T00:10:30;17.60;99.90
53152;DHT22;39234;53.158;6.322;2023-07-29T00:12:56;17.70;99.90
53152;DHT22;39234;53.158;6.322;2023-07-29T00:15:22;17.40;99.90
53152;DHT22;39234;53.158;6.322;2023-07-29T00:17:47;17.80;99.90
53152;DHT22;39234;53.158;6.322;2023-07-29T00:20:13;17.60;99.90
53152;DHT22;39234;53.158;6.322;2023-07-29T00:22:39;17.70;99.90
53152;DHT22;39234;53.158;6.322;2023-07-29T00:25:05;17.60;99.90
53152;DHT22;39234;53.158;6.322;2023-07-29T00:27:30;17.70;99.90
53152;DHT22;39234;53.158;6.322;2023-07-29T00:29:56;17.70;99.90
53152;DHT22;39234;53.158;6.322;2023-07-29T00:32:22;17.60;99.90
53152;DHT22;39234;53.158;6.322;2023-07-29T00:34:48;17.70;99.90
53152;DHT22;39234;53.158;6.322;2023-07-29T00:37:13;17.70;99.90
53152;DHT22;39234;53.158;6.322;2023-07-29T00:39:39;17.70;99.90
53152;DHT22;39234;53.158;6.322;2023-07-29T00:42:06;17.70;99.90
53152;DHT22;39234;53.158;6.322;2023-07-29T00:44:31;17.60;99.90
53152;DHT22;39234;53.158;6.322;2023-07-29T00:46:58;17.60;99.90
53152;DHT22;39234;53.158;6.322;2023-07-29T00:49:26;17.70;99.90
53152;DHT22;39234;53.158;6.322;2023-07-29T00:51:52;17.80;99.90
53152;DHT22;39234;53.158;6.322;2023-07-29T00:54:17;17.60;99.90
53152;DHT22;39234;53.158;6.322;2023-07-29T00:56:43;17.80;99.90
53152;DHT22;39234;53.158;6.322;2023-07-29T00:59:09;17.70;99.90
53152;DHT22;39234;53.158;6.322;2023-07-29T01:01:35;17.50;99.90
53152;DHT22;39234;53.158;6.322;2023-07-29T01:04:01;17.70;99.90
53152;DHT22;39234;53.158;6.322;2023-07-29T01:07:00;17.50;99.90
53152;DHT22;39234;53.158;6.322;2023-07-29T01:10:22;17.50;99.90
53152;DHT22;39234;53.158;6.322;2023-07-29T01:15:11;17.60;99.90
53152;DHT22;39234;53.158;6.322;2023-07-29T01:17:53;17.40;99.90
53152;DHT22;39234;53.158;6.322;2023-07-29T01:20:20;17.50;99.90
53152;DHT22;39234;53.158;6.322;2023-07-29T01:22:47;17.40;99.90
53152;DHT22;39234;53.158;6.322;2023-07-29T01:25:13;17.20;99.90
53152;DHT22;39234;53.158;6.322;2023-07-29T01:27:42;17.30;99.90
53152;DHT22;39234;53.158;6.322;2023-07-29T01:30:08;17.20;99.90
53152;DHT22;39234;53.158;6.322;2023-07-29T01:33:10;17.50;99.90
53152;DHT22;39234;53.158;6.322;2023-07-29T01:35:48;17.30;99.90
53152;DHT22;39234;53.158;6.322;2023-07-29T01:38:31;17.30;99.90
53152;DHT22;39234;53.158;6.322;2023-07-29T01:41:01;17.10;99.90
53152;DHT22;39234;53.158;6.322;2023-07-29T01:43:28;16.80;99.90
53152;DHT22;39234;53.158;6.322;2023-07-29T01:45:54;17.00;99.90
53152;DHT22;39234;53.158;6.322;2023-07-29T01:48:20;16.90;99.90
53152;DHT22;39234;53.158;6.322;2023-07-29T01:50:46;16.90;99.90
53152;DHT22;39234;53.158;6.322;2023-07-29T01:53:12;16.80;99.90
53152;DHT22;39234;53.158;6.322;2023-07-29T01:55:39;16.80;99.90
53152;DHT22;39234;53.158;6.322;2023-07-29T01:58:05;16.80;99.90
53152;DHT22;39234;53.158;6.322;2023-07-29T02:00:30;16.90;99.90
53152;DHT22;39234;53.158;6.322;2023-07-29T02:02:56;16.80;99.90
53152;DHT22;39234;53.158;6.322;2023-07-29T02:05:22;16.80;99.90
53152;DHT22;39234;53.158;6.322;2023-07-29T02:07:48;16.50;99.90
53152;DHT22;39234;53.158;6.322;2023-07-29T02:10:13;16.80;99.90
53152;DHT22;39234;53.158;6.322;2023-07-29T02:12:39;16.70;99.90
53152;DHT22;39234;53.158;6.322;2023-07-29T02:15:05;16.80;99.90
53152;DHT22;39234;53.158;6.322;2023-07-29T02:17:31;16.80;99.90
53152;DHT22;39234;53.158;6.322;2023-07-29T02:19:57;16.60;99.90
53152;DHT22;39234;53.158;6.322;2023-07-29T02:22:23;16.70;99.90
53152;DHT22;39234;53.158;6.322;2023-07-29T02:24:48;16.70;99.90
53152;DHT22;39234;53.158;6.322;2023-07-29T02:27:14;16.80;99.90
53152;DHT22;39234;53.158;6.322;2023-07-29T02:29:40;16.70;99.90
53152;DHT22;39234;53.158;6.322;2023-07-29T02:32:06;16.70;99.90
53152;DHT22;39234;53.158;6.322;2023-07-29T02:34:31;16.60;99.90
53152;DHT22;39234;53.158;6.322;2023-07-29T02:36:57;16.60;99.90
53152;DHT22;39234;53.158;6.322;2023-07-29T02:39:23;16.80;99.90
53152;DHT22;39234;53.158;6.322;2023-07-29T02:41:49;16.80;99.90
53152;DHT22;39234;53.158;6.322;2023-07-29T02:44:15;16.80;99.90
53152;DHT22;39234;53.158;6.322;2023-07-29T02:46:41;16.80;99.90
53152;DHT22;39234;53.158;6.322;2023-07-29T02:49:07;16.30;99.90
53152;DHT22;39234;53.158;6.322;2023-07-29T02:51:33;16.80;99.90
53152;DHT22;39234;53.158;6.322;2023-07-29T02:53:58;16.40;99.90
53152;DHT22;39234;53.158;6.322;2023-07-29T02:56:24;16.60;99.90
53152;DHT22;39234;53.158;6.322;2023-07-29T02:58:50;16.50;99.90
53152;DHT22;39234;53.158;6.322;2023-07-29T03:01:18;16.60;99.90
53152;DHT22;39234;53.158;6.322;2023-07-29T03:03:44;16.40;99.90
53152;DHT22;39234;53.158;6.322;2023-07-29T03:06:13;16.50;99.90
53152;DHT22;39234;53.158;6.322;2023-07-29T03:08:39;16.50;99.90
53152;DHT22;39234;53.158;6.322;2023-07-29T03:11:06;16.50;99.90
53152;DHT22;39234;53.158;6.322;2023-07-29T03:13:33;16.40;99.90
53152;DHT22;39234;53.158;6.322;2023-07-29T03:16:12;16.40;99.90
53152;DHT22;39234;53.158;6.322;2023-07-29T03:18:38;16.40;99.90
53152;DHT22;39234;53.158;6.322;2023-07-29T03:21:04;16.40;99.90
53152;DHT22;39234;53.158;6.322;2023-07-29T03:23:30;16.30;99.90
53152;DHT22;39234;53.158;6.322;2023-07-29T03:25:57;16.40;99.90
53152;DHT22;39234;53.158;6.322;2023-07-29T03:28:29;16.20;99.90
53152;DHT22;39234;53.158;6.322;2023-07-29T03:30:55;16.30;99.90
53152;DHT22;39234;53.158;6.322;2023-07-29T03:33:21;16.10;99.90
53152;DHT22;39234;53.158;6.322;2023-07-29T03:35:48;16.30;99.90
53152;DHT22;39234;53.158;6.322;2023-07-29T03:38:14;16.30;99.90
53152;DHT22;39234;53.158;6.322;2023-07-29T03:40:41;16.30;99.90
53152;DHT22;39234;53.158;6.322;2023-07-29T03:43:07;16.20;99.90
53152;DHT22;39234;53.158;6.322;2023-07-29T03:45:34;16.00;99.90
53152;DHT22;39234;53.158;6.322;2023-07-29T03:48:00;16.10;99.90
53152;DHT22;39234;53.158;6.322;2023-07-29T03:50:26;16.10;99.90
53152;DHT22;39234;53.158;6.322;2023-07-29T03:52:52;16.10;99.90
53152;DHT22;39234;53.158;6.322;2023-07-29T03:55:18;16.30;99.90
53152;DHT22;39234;53.158;6.322;2023-07-29T03:57:44;16.00;99.90
53152;DHT22;39234;53.158;6.322;2023-07-29T04:00:10;16.10;99.90
53152;DHT22;39234;53.158;6.322;2023-07-29T04:02:36;16.20;99.90
53152;DHT22;39234;53.158;6.322;2023-07-29T04:05:05;16.00;99.90
53152;DHT22;39234;53.158;6.322;2023-07-29T04:07:34;16.10;99.90
53152;DHT22;39234;53.158;6.322;2023-07-29T04:10:00;16.10;99.90
53152;DHT22;39234;53.158;6.322;2023-07-29T04:12:26;16.10;99.90
53152;DHT22;39234;53.158;6.322;2023-07-29T04:14:52;16.00;99.90
53152;DHT22;39234;53.158;6.322;2023-07-29T04:17:18;15.90;99.90
53152;DHT22;39234;53.158;6.322;2023-07-29T04:19:44;16.20;99.90
53152;DHT22;39234;53.158;6.322;2023-07-29T04:22:09;16.10;99.90
53152;DHT22;39234;53.158;6.322;2023-07-29T04:24:35;15.90;99.90
53152;DHT22;39234;53.158;6.322;2023-07-29T04:27:01;16.00;99.90
53152;DHT22;39234;53.158;6.322;2023-07-29T04:29:27;16.10;99.90
53152;DHT22;39234;53.158;6.322;2023-07-29T04:31:53;16.20;99.90
53152;DHT22;39234;53.158;6.322;2023-07-29T04:34:19;16.00;99.90
53152;DHT22;39234;53.158;6.322;2023-07-29T04:36:47;16.20;99.90
53152;DHT22;39234;53.158;6.322;2023-07-29T04:39:13;16.00;99.90
53152;DHT22;39234;53.158;6.322;2023-07-29T04:41:39;16.10;99.90
53152;DHT22;39234;53.158;6.322;2023-07-29T04:44:05;16.10;99.90
53152;DHT22;39234;53.158;6.322;2023-07-29T04:46:31;16.30;99.90
53152;DHT22;39234;53.158;6.322;2023-07-29T04:48:57;16.30;99.90
53152;DHT22;39234;53.158;6.322;2023-07-29T04:51:23;16.20;99.90
53152;DHT22;39234;53.158;6.322;2023-07-29T04:53:49;16.10;99.90
53152;DHT22;39234;53.158;6.322;2023-07-29T04:56:15;16.20;99.90
53152;DHT22;39234;53.158;6.322;2023-07-29T04:58:41;16.30;99.90
53152;DHT22;39234;53.158;6.322;2023-07-29T05:01:06;16.60;99.90
53152;DHT22;39234;53.158;6.322;2023-07-29T05:03:32;16.40;99.90
53152;DHT22;39234;53.158;6.322;2023-07-29T05:05:58;16.50;99.90
53152;DHT22;39234;53.158;6.322;2023-07-29T05:08:26;16.30;99.90
53152;DHT22;39234;53.158;6.322;2023-07-29T05:10:52;16.30;99.90
53152;DHT22;39234;53.158;6.322;2023-07-29T05:13:18;16.40;99.90
53152;DHT22;39234;53.158;6.322;2023-07-29T05:15:44;16.30;99.90
53152;DHT22;39234;53.158;6.322;2023-07-29T05:18:11;16.60;99.90
53152;DHT22;39234;53.158;6.322;2023-07-29T05:20:37;16.40;99.90
53152;DHT22;39234;53.158;6.322;2023-07-29T05:23:02;16.60;99.90
53152;DHT22;39234;53.158;6.322;2023-07-29T05:25:28;16.50;99.90
53152;DHT22;39234;53.158;6.322;2023-07-29T05:27:54;16.70;99.90
53152;DHT22;39234;53.158;6.322;2023-07-29T05:30:20;16.70;99.90
53152;DHT22;39234;53.158;6.322;2023-07-29T05:32:46;16.60;99.90
53152;DHT22;39234;53.158;6.322;2023-07-29T05:35:12;16.50;99.90
53152;DHT22;39234;53.158;6.322;2023-07-29T05:37:41;16.70;99.90
53152;DHT22;39234;53.158;6.322;2023-07-29T05:40:07;16.80;99.90
53152;DHT22;39234;53.158;6.322;2023-07-29T05:42:34;16.60;99.90
53152;DHT22;39234;53.158;6.322;2023-07-29T05:45:00;16.60;99.90
53152;DHT22;39234;53.158;6.322;2023-07-29T05:47:26;16.70;99.90
53152;DHT22;39234;53.158;6.322;2023-07-29T05:49:52;16.70;99.90
53152;DHT22;39234;53.158;6.322;2023-07-29T05:52:17;16.60;99.90
53152;DHT22;39234;53.158;6.322;2023-07-29T05:54:43;16.80;99.90
53152;DHT22;39234;53.158;6.322;2023-07-29T05:57:10;16.90;99.90
53152;DHT22;39234;53.158;6.322;2023-07-29T05:59:36;16.80;99.90
53152;DHT22;39234;53.158;6.322;2023-07-29T06:02:02;16.70;99.90
53152;DHT22;39234;53.158;6.322;2023-07-29T06:04:28;16.80;99.90
53152;DHT22;39234;53.158;6.322;2023-07-29T06:06:53;17.00;99.90
53152;DHT22;39234;53.158;6.322;2023-07-29T06:09:21;16.90;99.90
53152;DHT22;39234;53.158;6.322;2023-07-29T06:11:47;16.90;99.90
53152;DHT22;39234;53.158;6.322;2023-07-29T06:14:13;16.90;99.90
53152;DHT22;39234;53.158;6.322;2023-07-29T06:16:39;17.20;99.90
53152;DHT22;39234;53.158;6.322;2023-07-29T06:19:04;17.00;99.90
53152;DHT22;39234;53.158;6.322;2023-07-29T06:21:30;17.20;99.90
53152;DHT22;39234;53.158;6.322;2023-07-29T06:23:56;17.40;99.90
53152;DHT22;39234;53.158;6.322;2023-07-29T06:26:22;17.50;99.90
53152;DHT22;39234;53.158;6.322;2023-07-29T06:28:48;17.70;99.90
53152;DHT22;39234;53.158;6.322;2023-07-29T06:31:13;17.70;99.90
53152;DHT22;39234;53.158;6.322;2023-07-29T06:33:40;17.80;99.90
53152;DHT22;39234;53.158;6.322;2023-07-29T06:36:06;18.00;99.90
53152;DHT22;39234;53.158;6.322;2023-07-29T06:38:31;17.80;99.90
53152;DHT22;39234;53.158;6.322;2023-07-29T06:40:57;17.90;99.90
53152;DHT22;39234;53.158;6.322;2023-07-29T06:43:23;17.80;99.90
53152;DHT22;39234;53.158;6.322;2023-07-29T06:45:48;18.20;99.90
53152;DHT22;39234;53.158;6.322;2023-07-29T06:48:14;18.10;99.90
53152;DHT22;39234;53.158;6.322;2023-07-29T06:50:40;18.10;99.90
53152;DHT22;39234;53.158;6.322;2023-07-29T06:53:06;18.20;99.90
53152;DHT22;39234;53.158;6.322;2023-07-29T06:55:31;18.20;99.90
53152;DHT22;39234;53.158;6.322;2023-07-29T06:57:57;18.10;99.90
53152;DHT22;39234;53.158;6.322;2023-07-29T07:00:23;18.50;99.90
53152;DHT22;39234;53.158;6.322;2023-07-29T07:02:49;18.50;99.90
53152;DHT22;39234;53.158;6.322;2023-07-29T07:05:14;18.60;99.90
53152;DHT22;39234;53.158;6.322;2023-07-29T07:07:40;18.60;99.90
53152;DHT22;39234;53.158;6.322;2023-07-29T07:10:06;18.90;99.90
53152;DHT22;39234;53.158;6.322;2023-07-29T07:12:32;18.80;99.90
53152;DHT22;39234;53.158;6.322;2023-07-29T07:14:58;18.90;99.90
53152;DHT22;39234;53.158;6.322;2023-07-29T07:17:23;18.10;99.90
53152;DHT22;39234;53.158;6.322;2023-07-29T07:19:49;18.80;99.90
53152;DHT22;39234;53.158;6.322;2023-07-29T07:22:16;18.50;99.90
53152;DHT22;39234;53.158;6.322;2023-07-29T07:24:41;18.50;99.90
53152;DHT22;39234;53.158;6.322;2023-07-29T07:27:07;18.50;99.90
53152;DHT22;39234;53.158;6.322;2023-07-29T07:29:33;18.70;99.90
53152;DHT22;39234;53.158;6.322;2023-07-29T07:31:59;18.90;99.90
53152;DHT22;39234;53.158;6.322;2023-07-29T07:34:24;19.10;99.90
53152;DHT22;39234;53.158;6.322;2023-07-29T07:36:51;19.20;99.90
53152;DHT22;39234;53.158;6.322;2023-07-29T07:39:16;19.20;99.90
53152;DHT22;39234;53.158;6.322;2023-07-29T07:41:42;19.20;99.90
53152;DHT22;39234;53.158;6.322;2023-07-29T07:44:08;19.30;99.90
53152;DHT22;39234;53.158;6.322;2023-07-29T07:46:34;19.30;99.90
53152;DHT22;39234;53.158;6.322;2023-07-29T07:49:00;19.30;99.90
53152;DHT22;39234;53.158;6.322;2023-07-29T07:51:26;19.20;99.90
53152;DHT22;39234;53.158;6.322;2023-07-29T07:53:51;19.80;99.90
53152;DHT22;39234;53.158;6.322;2023-07-29T07:56:17;19.90;99.90
53152;DHT22;39234;53.158;6.322;2023-07-29T07:58:43;20.60;99.90
53152;DHT22;39234;53.158;6.322;2023-07-29T08:01:09;20.90;99.90
53152;DHT22;39234;53.158;6.322;2023-07-29T08:03:35;21.10;99.90
53152;DHT22;39234;53.158;6.322;2023-07-29T08:06:01;21.10;99.90
53152;DHT22;39234;53.158;6.322;2023-07-29T08:08:28;20.80;99.90
53152;DHT22;39234;53.158;6.322;2023-07-29T08:10:54;20.70;99.90
53152;DHT22;39234;53.158;6.322;2023-07-29T08:13:21;20.40;99.90
53152;DHT22;39234;53.158;6.322;2023-07-29T08:15:48;20.20;99.90
53152;DHT22;39234;53.158;6.322;2023-07-29T08:18:14;20.20;99.90
53152;DHT22;39234;53.158;6.322;2023-07-29T08:20:40;20.20;99.90
53152;DHT22;39234;53.158;6.322;2023-07-29T08:23:06;20.10;99.90
53152;DHT22;39234;53.158;6.322;2023-07-29T08:25:32;20.10;99.90
53152;DHT22;39234;53.158;6.322;2023-07-29T08:27:57;20.10;99.90
53152;DHT22;39234;53.158;6.322;2023-07-29T08:30:23;20.20;99.90
53152;DHT22;39234;53.158;6.322;2023-07-29T08:32:49;20.40;99.90
53152;DHT22;39234;53.158;6.322;2023-07-29T08:35:15;20.40;99.90
53152;DHT22;39234;53.158;6.322;2023-07-29T08:37:41;20.60;99.90
53152;DHT22;39234;53.158;6.322;2023-07-29T08:40:07;20.50;99.90
53152;DHT22;39234;53.158;6.322;2023-07-29T08:42:33;20.40;99.90
53152;DHT22;39234;53.158;6.322;2023-07-29T08:45:06;20.20;99.90
53152;DHT22;39234;53.158;6.322;2023-07-29T08:47:33;20.40;99.90
53152;DHT22;39234;53.158;6.322;2023-07-29T08:49:59;20.40;99.90
53152;DHT22;39234;53.158;6.322;2023-07-29T08:52:26;20.10;99.90
53152;DHT22;39234;53.158;6.322;2023-07-29T08:54:53;20.10;99.90
53152;DHT22;39234;53.158;6.322;2023-07-29T08:57:20;20.20;99.90
53152;DHT22;39234;53.158;6.322;2023-07-29T08:59:46;20.50;99.90
53152;DHT22;39234;53.158;6.322;2023-07-29T09:02:12;20.80;99.90
53152;DHT22;39234;53.158;6.322;2023-07-29T09:04:37;20.60;99.90
53152;DHT22;39234;53.158;6.322;2023-07-29T09:07:05;20.50;99.90
53152;DHT22;39234;53.158;6.322;2023-07-29T09:09:32;21.70;99.90
53152;DHT22;39234;53.158;6.322;2023-07-29T09:11:57;20.50;99.90
53152;DHT22;39234;53.158;6.322;2023-07-29T09:14:24;21.10;99.90
53152;DHT22;39234;53.158;6.322;2023-07-29T09:16:50;21.50;99.90
53152;DHT22;39234;53.158;6.322;2023-07-29T09:19:16;21.60;99.90
53152;DHT22;39234;53.158;6.322;2023-07-29T09:21:42;21.50;99.90
53152;DHT22;39234;53.158;6.322;2023-07-29T09:24:08;20.80;99.90
53152;DHT22;39234;53.158;6.322;2023-07-29T09:26:35;21.80;99.90
53152;DHT22;39234;53.158;6.322;2023-07-29T09:29:01;21.40;99.90
53152;DHT22;39234;53.158;6.322;2023-07-29T09:31:28;21.40;99.90
53152;DHT22;39234;53.158;6.322;2023-07-29T09:33:58;21.40;99.90
53152;DHT22;39234;53.158;6.322;2023-07-29T09:36:26;21.30;99.90
53152;DHT22;39234;53.158;6.322;2023-07-29T09:38:56;21.40;99.90
53152;DHT22;39234;53.158;6.322;2023-07-29T09:41:23;21.20;99.90
53152;DHT22;39234;53.158;6.322;2023-07-29T09:43:58;21.20;99.90
53152;DHT22;39234;53.158;6.322;2023-07-29T09:46:25;21.00;99.90
53152;DHT22;39234;53.158;6.322;2023-07-29T09:48:57;21.30;99.90
53152;DHT22;39234;53.158;6.322;2023-07-29T09:51:23;21.40;99.90
53152;DHT22;39234;53.158;6.322;2023-07-29T09:53:51;21.60;99.90
53152;DHT22;39234;53.158;6.322;2023-07-29T09:56:25;21.40;99.90
53152;DHT22;39234;53.158;6.322;2023-07-29T09:58:51;21.40;99.90
53152;DHT22;39234;53.158;6.322;2023-07-29T10:01:17;21.20;99.90
53152;DHT22;39234;53.158;6.322;2023-07-29T10:03:44;21.20;99.90
53152;DHT22;39234;53.158;6.322;2023-07-29T10:06:11;21.30;99.90
53152;DHT22;39234;53.158;6.322;2023-07-29T10:08:39;21.60;99.90
53152;DHT22;39234;53.158;6.322;2023-07-29T10:11:08;21.30;99.90
53152;DHT22;39234;53.158;6.322;2023-07-29T10:13:35;21.40;99.90
53152;DHT22;39234;53.158;6.322;2023-07-29T10:16:02;21.80;99.90
53152;DHT22;39234;53.158;6.322;2023-07-29T10:18:32;21.90;99.90
53152;DHT22;39234;53.158;6.322;2023-07-29T10:21:00;22.20;99.90
53152;DHT22;39234;53.158;6.322;2023-07-29T10:23:27;22.60;99.90
53152;DHT22;39234;53.158;6.322;2023-07-29T10:26:04;22.50;99.90
53152;DHT22;39234;53.158;6.322;2023-07-29T10:28:31;22.30;99.90
53152;DHT22;39234;53.158;6.322;2023-07-29T10:30:58;22.80;99.90
53152;DHT22;39234;53.158;6.322;2023-07-29T10:33:24;23.20;99.90
53152;DHT22;39234;53.158;6.322;2023-07-29T10:35:50;23.20;99.90
53152;DHT22;39234;53.158;6.322;2023-07-29T10:38:17;22.90;99.90
53152;DHT22;39234;53.158;6.322;2023-07-29T10:40:55;22.40;99.90
53152;DHT22;39234;53.158;6.322;2023-07-29T10:43:32;22.00;99.90
53152;DHT22;39234;53.158;6.322;2023-07-29T10:46:20;21.70;99.90
53152;DHT22;39234;53.158;6.322;2023-07-29T10:48:54;21.50;99.90
53152;DHT22;39234;53.158;6.322;2023-07-29T10:51:30;21.20;99.90
53152;DHT22;39234;53.158;6.322;2023-07-29T10:56:34;20.90;99.90
53152;DHT22;39234;53.158;6.322;2023-07-29T11:01:58;20.50;99.90
53152;DHT22;39234;53.158;6.322;2023-07-29T11:04:30;20.30;99.90
53152;DHT22;39234;53.158;6.322;2023-07-29T11:09:42;19.60;99.90
53152;DHT22;39234;53.158;6.322;2023-07-29T11:12:48;19.70;99.90
53152;DHT22;39234;53.158;6.322;2023-07-29T11:20:17;20.30;99.90
53152;DHT22;39234;53.158;6.322;2023-07-29T11:22:43;20.50;99.90
53152;DHT22;39234;53.158;6.322;2023-07-29T11:25:14;20.80;99.90
53152;DHT22;39234;53.158;6.322;2023-07-29T11:27:40;21.10;99.90
53152;DHT22;39234;53.158;6.322;2023-07-29T11:30:08;21.10;99.90
53152;DHT22;39234;53.158;6.322;2023-07-29T11:32:35;21.40;99.90
53152;DHT22;39234;53.158;6.322;2023-07-29T11:35:03;21.60;99.90
53152;DHT22;39234;53.158;6.322;2023-07-29T11:37:29;21.40;99.90
53152;DHT22;39234;53.158;6.322;2023-07-29T11:39:55;21.10;99.90
53152;DHT22;39234;53.158;6.322;2023-07-29T11:42:20;20.90;99.90
53152;DHT22;39234;53.158;6.322;2023-07-29T11:44:46;20.90;99.90
53152;DHT22;39234;53.158;6.322;2023-07-29T11:47:12;20.70;99.90
53152;DHT22;39234;53.158;6.322;2023-07-29T11:49:40;21.00;99.90
53152;DHT22;39234;53.158;6.322;2023-07-29T11:52:09;21.00;99.90
53152;DHT22;39234;53.158;6.322;2023-07-29T11:54:39;20.80;99.90
53152;DHT22;39234;53.158;6.322;2023-07-29T11:57:08;21.00;99.90
53152;DHT22;39234;53.158;6.322;2023-07-29T11:59:35;20.60;99.90
53152;DHT22;39234;53.158;6.322;2023-07-29T12:02:06;20.90;99.90
53152;DHT22;39234;53.158;6.322;2023-07-29T12:04:33;23.00;99.90
53152;DHT22;39234;53.158;6.322;2023-07-29T12:07:00;20.80;99.90
53152;DHT22;39234;53.158;6.322;2023-07-29T12:09:26;20.80;99.90
53152;DHT22;39234;53.158;6.322;2023-07-29T12:11:53;20.70;99.90
53152;DHT22;39234;53.158;6.322;2023-07-29T12:14:19;20.50;99.90
53152;DHT22;39234;53.158;6.322;2023-07-29T12:16:47;20.40;99.90
53152;DHT22;39234;53.158;6.322;2023-07-29T12:19:13;20.40;99.90
53152;DHT22;39234;53.158;6.322;2023-07-29T12:21:43;20.40;99.90
53152;DHT22;39234;53.158;6.322;2023-07-29T12:24:09;20.20;99.90
53152;DHT22;39234;53.158;6.322;2023-07-29T12:26:36;20.40;99.90
53152;DHT22;39234;53.158;6.322;2023-07-29T12:29:15;20.60;99.90
53152;DHT22;39234;53.158;6.322;2023-07-29T12:31:41;20.90;99.90
53152;DHT22;39234;53.158;6.322;2023-07-29T12:34:07;21.00;99.90
53152;DHT22;39234;53.158;6.322;2023-07-29T12:37:02;21.30;99.90
53152;DHT22;39234;53.158;6.322;2023-07-29T12:39:29;21.40;99.90
53152;DHT22;39234;53.158;6.322;2023-07-29T12:41:57;21.30;99.90
53152;DHT22;39234;53.158;6.322;2023-07-29T12:44:25;21.30;99.90
53152;DHT22;39234;53.158;6.322;2023-07-29T12:46:51;21.30;99.90
53152;DHT22;39234;53.158;6.322;2023-07-29T12:49:17;21.20;99.90
53152;DHT22;39234;53.158;6.322;2023-07-29T12:51:43;20.90;99.90
53152;DHT22;39234;53.158;6.322;2023-07-29T12:54:09;20.80;99.90
53152;DHT22;39234;53.158;6.322;2023-07-29T12:56:35;20.80;99.90
53152;DHT22;39234;53.158;6.322;2023-07-29T12:59:01;20.60;99.90
53152;DHT22;39234;53.158;6.322;2023-07-29T13:01:28;20.80;99.90
53152;DHT22;39234;53.158;6.322;2023-07-29T13:03:54;21.20;99.90
53152;DHT22;39234;53.158;6.322;2023-07-29T13:06:20;21.40;99.90
53152;DHT22;39234;53.158;6.322;2023-07-29T13:08:47;21.70;99.90
53152;DHT22;39234;53.158;6.322;2023-07-29T13:11:13;21.40;99.90
53152;DHT22;39234;53.158;6.322;2023-07-29T13:13:39;21.30;99.90
53152;DHT22;39234;53.158;6.322;2023-07-29T13:16:05;21.40;99.90
53152;DHT22;39234;53.158;6.322;2023-07-29T13:18:32;21.40;99.90
53152;DHT22;39234;53.158;6.322;2023-07-29T13:20:57;21.40;99.90
53152;DHT22;39234;53.158;6.322;2023-07-29T13:23:24;21.30;99.90
53152;DHT22;39234;53.158;6.322;2023-07-29T13:25:49;21.20;99.90
53152;DHT22;39234;53.158;6.322;2023-07-29T13:28:15;21.10;99.90
53152;DHT22;39234;53.158;6.322;2023-07-29T13:30:41;21.00;99.90
53152;DHT22;39234;53.158;6.322;2023-07-29T13:33:07;20.90;99.90
53152;DHT22;39234;53.158;6.322;2023-07-29T13:35:33;20.80;99.90
53152;DHT22;39234;53.158;6.322;2023-07-29T13:38:02;20.90;99.90
53152;DHT22;39234;53.158;6.322;2023-07-29T13:40:28;20.90;99.90
53152;DHT22;39234;53.158;6.322;2023-07-29T13:42:54;21.00;99.90
53152;DHT22;39234;53.158;6.322;2023-07-29T13:45:20;21.30;99.90
53152;DHT22;39234;53.158;6.322;2023-07-29T13:47:46;21.50;99.90
53152;DHT22;39234;53.158;6.322;2023-07-29T13:50:11;21.60;99.90
53152;DHT22;39234;53.158;6.322;2023-07-29T13:52:37;21.60;99.90
53152;DHT22;39234;53.158;6.322;2023-07-29T13:55:04;21.70;99.90
53152;DHT22;39234;53.158;6.322;2023-07-29T13:57:30;22.00;99.90
53152;DHT22;39234;53.158;6.322;2023-07-29T13:59:56;22.50;99.90
53152;DHT22;39234;53.158;6.322;2023-07-29T14:02:22;22.30;99.90
53152;DHT22;39234;53.158;6.322;2023-07-29T14:04:48;22.30;99.90
53152;DHT22;39234;53.158;6.322;2023-07-29T14:07:13;22.10;99.90
53152;DHT22;39234;53.158;6.322;2023-07-29T14:09:39;22.50;99.90
53152;DHT22;39234;53.158;6.322;2023-07-29T14:12:06;22.40;99.90
53152;DHT22;39234;53.158;6.322;2023-07-29T14:14:32;22.50;99.90
53152;DHT22;39234;53.158;6.322;2023-07-29T14:16:57;22.30;99.90
53152;DHT22;39234;53.158;6.322;2023-07-29T14:19:23;22.30;99.90
53152;DHT22;39234;53.158;6.322;2023-07-29T14:21:49;21.90;99.90
53152;DHT22;39234;53.158;6.322;2023-07-29T14:24:15;21.70;99.90
53152;DHT22;39234;53.158;6.322;2023-07-29T14:26:42;21.70;99.90
53152;DHT22;39234;53.158;6.322;2023-07-29T14:29:08;21.30;99.90
53152;DHT22;39234;53.158;6.322;2023-07-29T14:31:33;21.50;99.90
53152;DHT22;39234;53.158;6.322;2023-07-29T14:33:59;21.40;99.90
53152;DHT22;39234;53.158;6.322;2023-07-29T14:36:25;21.60;99.90
53152;DHT22;39234;53.158;6.322;2023-07-29T14:38:51;21.80;99.90
53152;DHT22;39234;53.158;6.322;2023-07-29T14:41:17;21.80;99.90
53152;DHT22;39234;53.158;6.322;2023-07-29T14:43:43;21.70;99.90
53152;DHT22;39234;53.158;6.322;2023-07-29T14:46:09;21.80;99.90
53152;DHT22;39234;53.158;6.322;2023-07-29T14:48:35;21.90;99.90
53152;DHT22;39234;53.158;6.322;2023-07-29T14:51:00;22.70;99.90
53152;DHT22;39234;53.158;6.322;2023-07-29T14:53:26;21.90;99.90
53152;DHT22;39234;53.158;6.322;2023-07-29T14:55:52;21.90;99.90
53152;DHT22;39234;53.158;6.322;2023-07-29T14:58:18;22.40;99.90
53152;DHT22;39234;53.158;6.322;2023-07-29T15:00:43;22.00;99.90
53152;DHT22;39234;53.158;6.322;2023-07-29T15:03:09;22.20;99.90
53152;DHT22;39234;53.158;6.322;2023-07-29T15:05:35;21.80;99.90
53152;DHT22;39234;53.158;6.322;2023-07-29T15:08:01;22.00;99.90
53152;DHT22;39234;53.158;6.322;2023-07-29T15:10:27;22.10;99.90
53152;DHT22;39234;53.158;6.322;2023-07-29T15:12:52;22.00;99.90
53152;DHT22;39234;53.158;6.322;2023-07-29T15:15:18;21.90;99.90
53152;DHT22;39234;53.158;6.322;2023-07-29T15:17:44;22.00;99.90
53152;DHT22;39234;53.158;6.322;2023-07-29T15:20:11;22.10;99.90
53152;DHT22;39234;53.158;6.322;2023-07-29T15:22:37;22.30;99.90
53152;DHT22;39234;53.158;6.322;2023-07-29T15:25:04;22.40;99.90
53152;DHT22;39234;53.158;6.322;2023-07-29T15:27:29;22.60;99.90
53152;DHT22;39234;53.158;6.322;2023-07-29T15:29:55;22.50;99.90
53152;DHT22;39234;53.158;6.322;2023-07-29T15:32:22;22.50;99.90
53152;DHT22;39234;53.158;6.322;2023-07-29T15:34:49;22.70;99.90
53152;DHT22;39234;53.158;6.322;2023-07-29T15:37:15;22.60;99.90
53152;DHT22;39234;53.158;6.322;2023-07-29T15:39:41;22.50;99.90
53152;DHT22;39234;53.158;6.322;2023-07-29T15:42:07;22.30;99.90
53152;DHT22;39234;53.158;6.322;2023-07-29T15:44:33;22.30;99.90